createdAt,value
2019-03-11T10:04:27.251Z,99.99
2019-03-11T10:05:27.170Z,99.99
2019-03-11T10:07:49.971Z,99.99
2019-03-11T10:08:49.841Z,99.99
2019-03-11T10:10:42.609Z,99.99
2019-03-11T10:11:42.546Z,99.99
2019-03-11T10:13:35.344Z,99.99
2019-03-11T10:14:35.275Z,99.99
2019-03-11T10:15:35.249Z,99.99
2019-03-11T10:16:35.162Z,99.99
2019-03-11T10:17:35.111Z,99.99
2019-03-11T10:18:35.053Z,99.99
2019-03-11T10:19:35.001Z,99.99
2019-03-11T10:20:34.949Z,99.99
2019-03-11T10:21:34.896Z,99.99
2019-03-11T10:22:34.844Z,99.99
2019-03-11T10:23:34.799Z,99.99
2019-03-11T10:24:34.738Z,99.99
2019-03-11T10:25:34.686Z,99.99
2019-03-11T10:26:34.630Z,99.99
2019-03-11T10:27:34.578Z,99.99
2019-03-11T10:28:34.525Z,99.99
2019-03-11T10:29:34.518Z,99.99
2019-03-11T10:30:34.425Z,99.99
2019-03-11T10:31:34.365Z,99.99
2019-03-11T10:32:34.322Z,99.99
2019-03-11T10:33:34.262Z,99.99
2019-03-11T10:34:34.216Z,99.99
2019-03-11T10:35:34.152Z,99.99
2019-03-11T10:36:34.109Z,99.99
2019-03-11T10:37:34.049Z,99.99
2019-03-11T10:38:34.001Z,99.99
2019-03-11T10:39:33.943Z,99.99
2019-03-11T10:40:33.894Z,99.99
2019-03-11T10:41:33.838Z,99.99
2019-03-11T10:42:33.786Z,99.72
2019-03-11T10:43:33.746Z,99.15
2019-03-11T10:44:33.675Z,99.99
2019-03-11T10:45:33.626Z,99.99
2019-03-11T10:46:33.573Z,97.92
2019-03-11T10:47:33.521Z,95.93
2019-03-11T10:48:37.388Z,96.97
2019-03-11T10:49:33.415Z,97.07
2019-03-11T10:50:33.362Z,97.54
2019-03-11T10:51:33.311Z,96.78
2019-03-11T10:52:33.257Z,95.17
2019-03-11T10:53:33.206Z,94.79
2019-03-11T10:54:33.151Z,94.70
2019-03-11T10:55:33.100Z,95.17
2019-03-11T10:56:33.050Z,95.55
2019-03-11T10:57:32.996Z,95.07
2019-03-11T10:58:32.943Z,94.65
2019-03-11T10:59:32.905Z,92.57
2019-03-11T11:00:32.850Z,90.95
2019-03-11T11:01:32.787Z,88.77
2019-03-11T11:02:32.734Z,89.15
2019-03-11T11:03:32.681Z,89.34
2019-03-11T11:04:32.640Z,88.34
2019-03-11T11:05:32.576Z,88.24
2019-03-11T11:06:32.524Z,86.44
2019-03-11T11:07:32.474Z,85.87
2019-03-11T11:08:32.423Z,85.40
2019-03-11T11:09:32.368Z,85.87
2019-03-11T11:10:32.317Z,84.64
2019-03-11T11:11:32.272Z,85.06
2019-03-11T11:12:32.211Z,83.92
2019-03-11T11:13:32.161Z,83.26
2019-03-11T11:14:32.113Z,83.07
2019-03-11T11:15:32.068Z,82.97
2019-03-11T11:16:32.009Z,81.65
2019-03-11T11:17:31.956Z,80.88
2019-03-11T11:18:31.907Z,78.80
2019-03-11T11:19:31.857Z,79.36
2019-03-11T11:20:31.802Z,80.60
2019-03-11T11:21:31.758Z,80.88
2019-03-11T11:22:31.702Z,80.18
2019-03-11T11:23:31.648Z,78.19
2019-03-11T11:24:31.598Z,75.43
2019-03-11T11:25:31.545Z,75.34
2019-03-11T11:26:31.496Z,76.71
2019-03-11T11:27:31.442Z,78.32
2019-03-11T11:28:31.392Z,78.80
2019-03-11T11:29:31.344Z,79.65
2019-03-11T11:30:31.290Z,82.88
2019-03-11T11:31:31.245Z,84.26
2019-03-11T11:32:31.184Z,86.44
2019-03-11T11:33:31.135Z,87.39
2019-03-11T11:34:31.093Z,88.53
2019-03-11T11:35:31.041Z,89.10
2019-03-11T11:36:30.982Z,89.67
2019-03-11T11:37:30.931Z,90.62
2019-03-11T11:38:30.901Z,90.71
2019-03-11T11:39:30.833Z,90.71
2019-03-11T11:40:30.776Z,91.09
2019-03-11T11:41:30.725Z,91.28
2019-03-11T11:42:30.671Z,91.09
2019-03-11T11:43:30.623Z,90.81
2019-03-11T11:44:30.574Z,90.62
2019-03-11T11:45:30.520Z,90.33
2019-03-11T11:46:30.472Z,90.33
2019-03-11T11:47:30.416Z,90.71
2019-03-11T11:48:30.371Z,89.58
2019-03-11T11:49:30.310Z,88.91
2019-03-11T11:50:30.266Z,87.01
2019-03-11T11:51:30.213Z,86.54
2019-03-11T11:52:30.407Z,87.01
2019-03-11T11:53:30.122Z,87.01
2019-03-11T11:54:30.060Z,86.07
2019-03-11T11:55:30.012Z,86.54
2019-03-11T11:56:29.955Z,86.82
2019-03-11T11:57:29.903Z,87.77
2019-03-11T11:58:29.852Z,86.44
2019-03-11T11:59:29.809Z,85.97
2019-03-11T12:00:29.750Z,85.97
2019-03-11T12:01:29.729Z,85.30
2019-03-11T12:02:29.651Z,86.49
2019-03-11T12:03:29.621Z,86.58
2019-03-11T12:04:29.780Z,85.82
2019-03-11T12:05:29.494Z,84.45
2019-03-11T12:06:29.432Z,84.64
2019-03-11T12:07:29.522Z,85.44
2019-03-11T12:08:29.354Z,85.21
2019-03-11T12:09:29.360Z,84.92
2019-03-11T12:10:29.251Z,84.92
2019-03-11T12:11:29.334Z,85.49
2019-03-11T12:12:29.142Z,84.83
2019-03-11T12:13:29.081Z,85.44
2019-03-11T12:14:29.031Z,85.44
2019-03-11T12:15:28.984Z,85.21
2019-03-11T12:16:28.959Z,85.68
2019-03-11T12:17:28.902Z,85.44
2019-03-11T12:18:28.827Z,85.11
2019-03-11T12:19:28.774Z,84.92
2019-03-11T12:20:28.742Z,85.35
2019-03-11T12:21:28.677Z,84.26
2019-03-11T12:22:28.628Z,84.26
2019-03-11T12:23:28.574Z,84.11
2019-03-11T12:24:28.523Z,84.49
2019-03-11T12:25:28.470Z,83.92
2019-03-11T12:26:28.443Z,84.11
2019-03-11T12:27:28.372Z,83.16
2019-03-11T12:28:28.332Z,82.50
2019-03-11T12:29:28.422Z,83.36
2019-03-11T12:30:28.248Z,82.69
2019-03-11T12:31:28.168Z,82.50
2019-03-11T12:32:28.994Z,81.41
2019-03-11T12:33:28.064Z,81.32
2019-03-11T12:34:28.013Z,81.60
2019-03-11T12:35:27.965Z,81.13
2019-03-11T12:36:27.902Z,81.70
2019-03-11T12:37:27.870Z,81.70
2019-03-11T12:38:28.855Z,82.17
2019-03-11T12:39:27.756Z,81.84
2019-03-11T12:40:27.707Z,81.04
2019-03-11T12:41:27.724Z,82.17
2019-03-11T12:42:27.602Z,81.79
2019-03-11T12:43:27.551Z,81.60
2019-03-11T12:44:31.448Z,82.55
2019-03-11T12:45:27.441Z,82.55
2019-03-11T12:46:27.390Z,82.84
2019-03-11T12:47:27.340Z,83.31
2019-03-11T12:48:27.371Z,82.93
2019-03-11T12:49:27.241Z,82.84
2019-03-11T12:50:27.192Z,81.88
2019-03-11T12:51:27.138Z,81.70
2019-03-11T12:52:27.091Z,80.98
2019-03-11T12:53:27.046Z,80.18
2019-03-11T12:54:26.985Z,79.27
2019-03-11T12:55:26.936Z,78.51
2019-03-11T12:56:26.876Z,77.18
2019-03-11T12:57:26.825Z,75.47
2019-03-11T12:58:26.780Z,75.95
2019-03-11T12:59:26.728Z,74.52
2019-03-11T13:00:26.675Z,73.16
2019-03-11T13:01:26.664Z,73.25
2019-03-11T13:02:26.572Z,74.01
2019-03-11T13:03:26.522Z,74.01
2019-03-11T13:04:26.468Z,74.49
2019-03-11T13:05:26.420Z,75.34
2019-03-11T13:06:26.359Z,76.86
2019-03-11T13:07:26.308Z,79.47
2019-03-11T13:08:26.266Z,82.23
2019-03-11T13:09:26.216Z,84.50
2019-03-11T13:10:26.163Z,83.65
2019-03-11T13:11:26.120Z,84.12
2019-03-11T13:12:26.057Z,83.27
2019-03-11T13:13:26.005Z,83.17
2019-03-11T13:14:25.956Z,82.60
2019-03-11T13:15:25.905Z,83.27
2019-03-11T13:16:25.843Z,82.98
2019-03-11T13:17:25.802Z,83.94
2019-03-11T13:18:25.753Z,85.17
2019-03-11T13:19:25.702Z,85.02
2019-03-11T13:20:25.644Z,85.40
2019-03-11T13:21:25.593Z,84.59
2019-03-11T13:22:25.541Z,85.26
2019-03-11T13:23:25.490Z,85.68
2019-03-11T13:24:25.438Z,85.26
2019-03-11T13:25:25.388Z,85.07
2019-03-11T13:26:25.346Z,85.26
2019-03-11T13:27:25.292Z,84.50
2019-03-11T13:30:49.778Z,84.17
2019-03-11T13:31:49.701Z,84.07
2019-03-11T13:33:42.515Z,83.31
2019-03-11T13:34:42.442Z,82.27
2019-03-11T13:36:35.249Z,82.93
2019-03-11T13:37:35.170Z,82.36
2019-03-11T13:38:35.118Z,81.88
2019-03-11T13:39:35.068Z,79.90
2019-03-11T13:40:36.693Z,80.65
2019-03-11T13:41:34.963Z,80.94
2019-03-11T13:42:34.910Z,81.04
2019-03-11T13:43:34.858Z,80.32
2019-03-11T13:44:34.809Z,79.94
2019-03-11T13:45:34.756Z,78.80
2019-03-11T13:46:34.706Z,77.62
2019-03-11T13:47:34.654Z,77.52
2019-03-11T13:48:34.602Z,77.05
2019-03-11T13:49:34.550Z,76.57
2019-03-11T13:50:34.499Z,77.05
2019-03-11T13:51:34.445Z,76.29
2019-03-11T13:52:34.400Z,75.72
2019-03-11T13:53:34.345Z,75.95
2019-03-11T13:54:34.293Z,75.76
2019-03-11T13:55:34.239Z,75.38
2019-03-11T13:56:34.187Z,74.81
2019-03-11T13:57:34.136Z,73.67
2019-03-11T13:58:34.085Z,74.71
2019-03-11T13:59:34.033Z,74.71
2019-03-11T14:00:33.984Z,73.76
2019-03-11T14:01:33.932Z,73.19
2019-03-11T14:02:33.878Z,72.88
2019-03-11T14:03:33.827Z,73.29
2019-03-11T14:04:33.783Z,73.25
2019-03-11T14:05:33.726Z,73.92
2019-03-11T14:06:33.675Z,74.11
2019-03-11T14:07:34.148Z,72.97
2019-03-11T14:08:33.570Z,73.25
2019-03-11T14:09:33.528Z,73.16
2019-03-11T14:12:05.008Z,73.38
2019-03-11T14:13:04.940Z,73.16
2019-03-11T14:14:57.736Z,73.96
2019-03-11T14:15:57.667Z,73.86
2019-03-11T14:17:50.450Z,72.06
2019-03-11T14:18:50.392Z,72.25
2019-03-11T14:20:43.200Z,70.12
2019-03-11T14:21:43.125Z,70.50
2019-03-11T14:23:35.913Z,70.78
2019-03-11T14:24:35.853Z,70.98
2019-03-11T14:26:28.663Z,70.88
2019-03-11T14:28:41.416Z,71.26
2019-03-11T14:29:41.356Z,71.26
2019-03-11T14:31:34.169Z,71.83
2019-03-11T14:32:34.094Z,72.68
2019-03-11T14:34:27.427Z,73.54
2019-03-11T14:35:26.896Z,73.44
2019-03-11T14:36:26.769Z,75.31
2019-03-11T14:37:26.716Z,78.72
2019-03-11T14:38:26.664Z,80.90
2019-03-11T14:39:26.611Z,80.71
2019-03-11T14:40:26.560Z,81.37
2019-03-11T14:41:26.507Z,82.51
2019-03-11T14:42:26.525Z,82.70
2019-03-11T14:43:26.403Z,85.17
2019-03-11T14:44:26.351Z,85.26
2019-03-11T14:45:26.299Z,85.17
2019-03-11T14:46:26.244Z,85.74
2019-03-11T14:47:26.192Z,85.26
2019-03-11T14:48:26.144Z,85.55
2019-03-11T14:49:26.086Z,85.93
2019-03-11T14:50:26.045Z,85.17
2019-03-11T14:51:25.983Z,85.26
2019-03-11T14:52:25.932Z,84.69
2019-03-11T14:53:25.876Z,83.84
2019-03-11T14:54:25.826Z,83.65
2019-03-11T14:55:25.776Z,83.27
2019-03-11T14:56:25.721Z,83.08
2019-03-11T14:57:25.668Z,83.36
2019-03-11T14:58:29.279Z,83.55
2019-03-11T14:59:25.562Z,82.60
2019-03-11T15:00:25.517Z,82.23
2019-03-11T15:01:25.457Z,82.13
2019-03-11T15:02:25.404Z,80.52
2019-03-11T15:03:25.469Z,79.95
2019-03-11T15:04:25.302Z,80.27
2019-03-11T15:05:25.248Z,79.38
2019-03-11T15:06:25.194Z,79.10
2019-03-11T15:07:25.147Z,78.05
2019-03-11T15:08:25.088Z,77.05
2019-03-11T15:09:25.039Z,76.67
2019-03-11T15:10:24.985Z,76.20
2019-03-11T15:11:24.934Z,76.20
2019-03-11T15:12:24.881Z,76.76
2019-03-11T15:13:24.829Z,76.57
2019-03-11T15:14:24.774Z,77.33
2019-03-11T15:15:24.722Z,77.62
2019-03-11T15:16:24.674Z,77.90
2019-03-11T15:17:24.617Z,77.71
2019-03-11T15:18:24.564Z,77.58
2019-03-11T15:19:24.517Z,77.90
2019-03-11T15:20:24.461Z,80.14
2019-03-11T15:21:24.405Z,81.85
2019-03-11T15:22:24.354Z,82.89
2019-03-11T15:23:24.305Z,82.98
2019-03-11T15:24:24.255Z,83.36
2019-03-11T15:25:24.199Z,82.89
2019-03-11T15:26:25.293Z,83.36
2019-03-11T15:27:24.093Z,82.98
2019-03-11T15:28:24.263Z,83.27
2019-03-11T15:29:23.994Z,80.46
2019-03-11T15:30:23.935Z,79.52
2019-03-11T15:31:23.884Z,78.09
2019-03-11T15:32:23.832Z,77.62
2019-03-11T15:33:23.778Z,77.14
2019-03-11T15:34:23.728Z,76.67
2019-03-11T15:35:23.678Z,76.76
2019-03-11T15:36:33.114Z,76.57
2019-03-11T15:37:23.570Z,75.72
2019-03-11T15:38:23.663Z,75.87
2019-03-11T15:39:23.465Z,76.54
2019-03-11T15:40:23.413Z,76.34
2019-03-11T15:41:23.382Z,76.73
2019-03-11T15:42:23.308Z,76.92
2019-03-11T15:43:23.259Z,76.92
2019-03-11T15:44:23.203Z,77.86
2019-03-11T15:45:23.182Z,78.34
2019-03-11T15:46:23.102Z,79.28
2019-03-11T15:47:23.044Z,79.38
2019-03-11T15:48:22.994Z,80.33
2019-03-11T15:49:22.941Z,79.76
2019-03-11T15:50:22.889Z,79.85
2019-03-11T15:51:22.834Z,79.66
2019-03-11T15:52:22.783Z,79.85
2019-03-11T15:53:22.730Z,79.47
2019-03-11T15:54:22.711Z,79.28
2019-03-11T15:55:22.626Z,79.47
2019-03-11T15:56:22.573Z,79.28
2019-03-11T15:57:22.522Z,78.81
2019-03-11T15:58:22.471Z,79.04
2019-03-11T15:59:22.416Z,78.15
2019-03-11T16:00:22.363Z,77.67
2019-03-11T16:01:22.312Z,77.29
2019-03-11T16:02:22.261Z,77.20
2019-03-11T16:03:22.205Z,77.48
2019-03-11T16:04:22.153Z,77.67
2019-03-11T16:05:22.103Z,76.73
2019-03-11T16:06:22.049Z,76.63
2019-03-11T16:07:21.996Z,77.58
2019-03-11T16:08:21.947Z,77.77
2019-03-11T16:09:21.908Z,78.15
2019-03-11T16:10:21.836Z,78.05
2019-03-11T16:11:21.820Z,78.15
2019-03-11T16:12:21.734Z,77.58
2019-03-11T16:13:21.683Z,77.39
2019-03-11T16:14:22.474Z,77.48
2019-03-11T16:15:22.473Z,77.67
2019-03-11T16:16:23.468Z,77.86
2019-03-11T16:17:21.470Z,77.58
2019-03-11T16:18:21.418Z,77.86
2019-03-11T16:19:21.366Z,78.15
2019-03-11T16:20:21.313Z,77.86
2019-03-11T16:21:21.262Z,78.81
2019-03-11T16:22:24.289Z,81.37
2019-03-11T16:23:21.154Z,79.95
2019-03-11T16:24:21.105Z,79.28
2019-03-11T16:25:21.047Z,80.14
2019-03-11T16:26:20.997Z,80.33
2019-03-11T16:27:20.943Z,79.76
2019-03-11T16:28:20.893Z,79.76
2019-03-11T16:29:20.839Z,80.71
2019-03-11T16:30:20.785Z,81.66
2019-03-11T16:31:20.772Z,81.66
2019-03-11T16:32:20.682Z,82.51
2019-03-11T16:33:20.633Z,83.36
2019-03-11T16:34:20.571Z,83.84
2019-03-11T16:35:20.525Z,83.65
2019-03-11T16:36:20.473Z,83.74
2019-03-11T16:37:20.418Z,83.74
2019-03-11T16:38:20.376Z,84.50
2019-03-11T16:39:20.312Z,84.22
2019-03-11T16:40:20.288Z,83.84
2019-03-11T16:41:20.206Z,84.22
2019-03-11T16:42:55.983Z,83.27
2019-03-11T16:43:20.124Z,82.23
2019-03-11T16:44:20.051Z,82.04
2019-03-11T16:45:20.037Z,82.89
2019-03-11T16:46:19.946Z,82.60
2019-03-11T16:47:19.891Z,83.74
2019-03-11T16:48:19.873Z,84.59
2019-03-11T16:49:19.794Z,85.26
2019-03-11T16:50:19.733Z,85.74
2019-03-11T16:51:19.680Z,85.64
2019-03-11T16:52:19.628Z,85.83
2019-03-11T16:53:19.575Z,86.78
2019-03-11T16:54:19.557Z,86.49
2019-03-11T16:55:19.469Z,87.35
2019-03-11T16:56:19.426Z,86.97
2019-03-11T16:57:19.365Z,87.49
2019-03-11T16:58:19.310Z,87.63
2019-03-11T16:59:19.262Z,88.06
2019-03-11T17:00:19.205Z,88.16
2019-03-11T17:01:19.164Z,88.63
2019-03-11T17:02:19.100Z,88.35
2019-03-11T17:03:19.078Z,88.82
2019-03-11T17:04:18.996Z,89.01
2019-03-11T17:05:54.485Z,89.01
2019-03-11T17:06:18.889Z,89.01
2019-03-11T17:07:18.837Z,89.67
2019-03-11T17:08:18.819Z,89.29
2019-03-11T17:09:18.729Z,89.67
2019-03-11T17:10:18.677Z,89.58
2019-03-11T17:11:18.627Z,90.05
2019-03-11T17:12:18.571Z,90.43
2019-03-11T17:13:18.519Z,90.72
2019-03-11T17:14:18.467Z,90.72
2019-03-11T17:15:18.443Z,91.00
2019-03-11T17:16:18.361Z,91.28
2019-03-11T17:17:18.323Z,91.19
2019-03-11T17:18:18.253Z,91.76
2019-03-11T17:19:53.986Z,91.81
2019-03-11T17:20:18.243Z,91.62
2019-03-11T17:21:18.094Z,91.33
2019-03-11T17:22:18.075Z,91.33
2019-03-11T17:23:17.989Z,91.62
2019-03-11T17:24:17.934Z,92.00
2019-03-11T17:25:17.881Z,91.90
2019-03-11T17:26:17.834Z,91.90
2019-03-11T17:27:17.780Z,91.33
2019-03-11T17:28:17.722Z,91.81
2019-03-11T17:29:17.680Z,91.81
2019-03-11T17:30:17.620Z,91.71
2019-03-11T17:31:17.593Z,91.62
2019-03-11T17:32:17.513Z,91.81
2019-03-11T17:33:52.987Z,91.62
2019-03-11T17:34:17.403Z,91.62
2019-03-11T17:35:17.350Z,92.38
2019-03-11T17:36:17.297Z,92.28
2019-03-11T17:37:17.241Z,92.57
2019-03-11T17:38:17.226Z,93.61
2019-03-11T17:39:17.136Z,93.32
2019-03-11T17:40:17.083Z,94.08
2019-03-11T17:41:17.033Z,94.56
2019-03-11T17:42:17.293Z,94.84
2019-03-11T17:43:16.925Z,95.50
2019-03-11T17:44:16.870Z,95.98
2019-03-11T17:45:17.480Z,95.41
2019-03-11T17:46:16.762Z,95.98
2019-03-11T17:47:16.711Z,95.98
2019-03-11T17:48:18.622Z,96.40
2019-03-11T17:49:52.491Z,97.11
2019-03-11T17:50:16.546Z,97.21
2019-03-11T17:51:16.496Z,97.63
2019-03-11T17:52:16.477Z,98.11
2019-03-11T17:53:20.102Z,98.86
2019-03-11T17:54:16.334Z,99.43
2019-03-11T17:55:16.284Z,98.96
2019-03-11T17:56:16.243Z,98.96
2019-03-11T17:57:16.174Z,99.15
2019-03-11T17:58:16.122Z,99.62
2019-03-11T17:59:16.099Z,99.52
2019-03-11T18:00:16.013Z,99.52
2019-03-11T18:01:15.994Z,99.33
2019-03-11T18:02:15.905Z,99.15
2019-03-11T18:03:15.852Z,99.62
2019-03-11T18:04:15.798Z,99.62
2019-03-11T18:05:15.747Z,99.33
2019-03-11T18:06:15.690Z,99.90
2019-03-11T18:07:15.636Z,99.71
2019-03-11T18:08:15.621Z,99.81
2019-03-11T18:09:15.530Z,99.90
2019-03-11T18:10:15.485Z,99.99
2019-03-11T18:11:15.424Z,99.99
2019-03-11T18:12:15.369Z,99.52
2019-03-11T18:14:54.386Z,99.15
2019-03-11T18:15:54.279Z,99.33
2019-03-11T18:17:47.092Z,99.33
2019-03-11T18:18:47.016Z,99.33
2019-03-11T18:20:39.818Z,98.96
2019-03-11T18:21:39.737Z,99.05
2019-03-11T18:23:32.567Z,98.58
2019-03-11T18:24:32.460Z,98.77
2019-03-11T18:27:18.943Z,98.86
2019-03-11T18:29:31.678Z,98.86
2019-03-11T18:31:44.468Z,98.11
2019-03-11T18:33:57.210Z,97.92
2019-03-11T18:34:57.200Z,98.96
2019-03-11T18:37:29.085Z,99.43
2019-03-11T18:37:49.874Z,99.43
2019-03-11T18:39:42.652Z,99.71
2019-03-11T18:40:42.599Z,99.99
2019-03-11T18:42:53.512Z,99.99
2019-03-11T18:43:42.764Z,99.99
2019-03-11T18:45:28.241Z,99.99
2019-03-11T18:46:28.055Z,99.99
2019-03-11T18:48:31.456Z,99.99
2019-03-11T18:49:20.754Z,99.99
2019-03-11T18:51:13.544Z,99.99
2019-03-11T18:52:13.491Z,99.99
2019-03-11T18:54:31.397Z,99.99
2019-03-11T18:55:16.878Z,99.99
2019-03-11T18:56:16.774Z,99.99
2019-03-11T18:57:31.469Z,99.99
2019-03-11T18:58:16.685Z,99.99
2019-03-11T18:59:16.612Z,99.99
2019-03-11T19:00:16.569Z,99.99
2019-03-11T19:01:16.567Z,99.99
2019-03-11T19:02:16.468Z,99.99
2019-03-11T19:03:16.392Z,99.99
2019-03-11T19:04:16.356Z,99.99
2019-03-11T19:05:22.858Z,99.99
2019-03-11T19:06:16.230Z,99.99
2019-03-11T19:07:16.203Z,99.99
2019-03-11T19:08:16.125Z,99.99
2019-03-11T19:09:16.093Z,99.99
2019-03-11T19:10:16.060Z,99.99
2019-03-11T19:11:15.992Z,99.99
2019-03-11T19:12:15.936Z,99.99
2019-03-11T19:13:15.886Z,99.99
2019-03-11T19:14:15.868Z,99.99
2019-03-11T19:15:15.757Z,99.99
2019-03-11T19:16:15.689Z,99.99
2019-03-11T19:17:15.635Z,99.99
2019-03-11T19:18:15.615Z,99.99
2019-03-11T19:19:15.572Z,99.99
2019-03-11T19:22:02.997Z,99.99
2019-03-11T19:23:02.868Z,99.99
2019-03-11T19:24:56.101Z,99.99
2019-03-11T19:25:56.074Z,99.99
2019-03-11T19:26:55.982Z,99.99
2019-03-11T19:27:55.928Z,99.99
2019-03-11T19:28:55.885Z,99.99
2019-03-11T19:29:55.825Z,99.99
2019-03-11T19:30:56.656Z,99.99
2019-03-11T19:31:55.734Z,99.99
2019-03-11T19:32:55.729Z,99.99
2019-03-11T19:33:55.602Z,99.99
2019-03-11T19:34:55.549Z,99.99
2019-03-11T19:35:55.541Z,99.99
2019-03-11T19:36:55.452Z,99.99
2019-03-11T19:37:55.388Z,99.99
2019-03-11T19:38:56.979Z,99.99
2019-03-11T19:40:02.215Z,99.99
2019-03-11T19:40:55.242Z,99.99
2019-03-11T19:41:55.171Z,99.99
2019-03-11T19:42:55.160Z,99.99
2019-03-11T19:43:55.063Z,99.99
2019-03-11T19:44:55.034Z,99.99
2019-03-11T19:45:55.024Z,99.99
2019-03-11T19:46:54.923Z,99.99
2019-03-11T19:47:54.874Z,99.99
2019-03-11T19:48:54.792Z,99.99
2019-03-11T19:49:56.975Z,99.99
2019-03-11T19:50:54.683Z,99.99
2019-03-11T19:51:54.630Z,99.99
2019-03-11T19:52:59.053Z,99.99
2019-03-11T19:53:54.799Z,99.99
2019-03-11T19:54:54.469Z,99.99
2019-03-11T19:55:54.467Z,99.99
2019-03-11T19:56:54.413Z,99.99
2019-03-11T19:57:54.325Z,99.99
2019-03-11T19:58:54.298Z,99.99
2019-03-11T19:59:54.207Z,99.99
2019-03-11T20:00:54.143Z,99.99
2019-03-11T20:01:54.119Z,99.99
2019-03-11T20:02:54.036Z,99.99
2019-03-11T20:03:56.694Z,99.99
2019-03-11T20:04:53.952Z,99.99
2019-03-11T20:05:54.135Z,99.99
2019-03-11T20:06:53.846Z,99.99
2019-03-11T20:07:53.792Z,99.99
2019-03-11T20:08:53.747Z,99.99
2019-03-11T20:09:53.741Z,99.99
2019-03-11T20:10:53.635Z,99.99
2019-03-11T20:11:54.166Z,99.99
2019-03-11T20:12:53.520Z,99.99
2019-03-11T20:13:53.512Z,99.99
2019-03-11T20:14:53.470Z,99.99
2019-03-11T20:15:54.096Z,99.99
2019-03-11T20:16:53.283Z,99.95
2019-03-11T20:17:53.249Z,99.85
2019-03-11T20:18:53.171Z,99.24
2019-03-11T20:19:53.129Z,99.48
2019-03-11T20:20:53.127Z,99.29
2019-03-11T20:21:53.006Z,99.29
2019-03-11T20:22:52.987Z,98.91
2019-03-11T20:23:52.943Z,98.96
2019-03-11T20:24:52.859Z,97.92
2019-03-11T20:25:52.824Z,97.82
2019-03-11T20:26:52.755Z,97.96
2019-03-11T20:27:52.753Z,98.01
2019-03-11T20:28:52.636Z,98.25
2019-03-11T20:29:52.591Z,98.06
2019-03-11T20:30:52.531Z,99.10
2019-03-11T20:31:52.531Z,98.86
2019-03-11T20:32:52.498Z,97.96
2019-03-11T20:33:52.355Z,98.11
2019-03-11T20:34:52.307Z,97.82
2019-03-11T20:35:52.248Z,97.44
2019-03-11T20:36:52.212Z,97.30
2019-03-11T20:37:52.253Z,97.35
2019-03-11T20:38:52.098Z,96.88
2019-03-11T20:39:52.062Z,96.40
2019-03-11T20:40:52.062Z,96.88
2019-03-11T20:41:51.936Z,96.69
2019-03-11T20:42:51.973Z,96.45
2019-03-11T20:43:51.817Z,96.88
2019-03-11T20:44:51.774Z,96.59
2019-03-11T20:45:51.750Z,96.02
2019-03-11T20:46:51.672Z,96.21
2019-03-11T20:47:51.632Z,96.31
2019-03-11T20:48:51.544Z,96.31
2019-03-11T20:49:51.496Z,96.40
2019-03-11T20:50:51.483Z,96.50
2019-03-11T20:51:51.393Z,96.59
2019-03-11T20:52:51.374Z,95.93
2019-03-11T20:53:51.272Z,95.83
2019-03-11T20:54:51.227Z,95.74
2019-03-11T20:55:51.213Z,94.60
2019-03-11T20:56:51.182Z,94.51
2019-03-11T20:57:51.137Z,95.07
2019-03-11T20:58:51.044Z,94.79
2019-03-11T20:59:52.667Z,94.98
2019-03-11T21:00:50.910Z,95.17
2019-03-11T21:01:50.838Z,95.17
2019-03-11T21:02:50.889Z,94.79
2019-03-11T21:03:50.733Z,94.98
2019-03-11T21:04:50.681Z,94.60
2019-03-11T21:05:50.644Z,94.98
2019-03-11T21:06:50.568Z,94.98
2019-03-11T21:07:50.551Z,94.98
2019-03-11T21:08:50.537Z,94.42
2019-03-11T21:09:50.435Z,95.07
2019-03-11T21:10:50.390Z,94.89
2019-03-11T21:11:50.338Z,94.98
2019-03-11T21:12:50.360Z,94.79
2019-03-11T21:13:50.264Z,94.60
2019-03-11T21:14:50.158Z,94.98
2019-03-11T21:15:50.155Z,94.70
2019-03-11T21:16:50.057Z,95.17
2019-03-11T21:17:49.979Z,95.07
2019-03-11T21:18:49.950Z,95.36
2019-03-11T21:19:49.915Z,94.89
2019-03-11T21:20:49.922Z,94.79
2019-03-11T21:21:49.795Z,95.07
2019-03-11T21:22:49.758Z,95.45
2019-03-11T21:24:01.250Z,95.64
2019-03-11T21:24:59.173Z,95.36
2019-03-11T21:25:49.605Z,94.89
2019-03-11T21:26:49.533Z,94.89
2019-03-11T21:27:49.501Z,95.83
2019-03-11T21:28:49.411Z,95.74
2019-03-11T21:29:49.428Z,95.45
2019-03-11T21:30:49.272Z,95.93
2019-03-11T21:31:49.255Z,95.74
2019-03-11T21:32:49.264Z,95.36
2019-03-11T21:33:58.410Z,95.93
2019-03-11T21:34:49.203Z,95.55
2019-03-11T21:35:49.108Z,95.55
2019-03-11T21:36:50.734Z,95.45
2019-03-11T21:37:48.912Z,95.83
2019-03-11T21:38:48.876Z,95.36
2019-03-11T21:39:48.881Z,95.55
2019-03-11T21:40:48.841Z,95.36
2019-03-11T21:41:48.743Z,95.45
2019-03-11T21:42:48.687Z,95.74
2019-03-11T21:43:48.608Z,95.74
2019-03-11T21:44:48.539Z,94.79
2019-03-11T21:45:48.537Z,94.60
2019-03-11T21:46:48.430Z,94.32
2019-03-11T21:47:50.799Z,94.32
2019-03-11T21:48:48.424Z,94.42
2019-03-11T21:49:48.262Z,94.23
2019-03-11T21:50:48.240Z,94.51
2019-03-11T21:51:48.194Z,93.65
2019-03-11T21:52:48.142Z,93.84
2019-03-11T21:53:48.047Z,94.04
2019-03-11T21:54:48.024Z,93.84
2019-03-11T21:55:48.049Z,94.42
2019-03-11T21:56:47.918Z,93.84
2019-03-11T21:57:47.828Z,94.23
2019-03-11T21:58:47.872Z,94.13
2019-03-11T21:59:47.806Z,94.60
2019-03-11T22:00:47.657Z,94.51
2019-03-11T22:01:47.601Z,94.60
2019-03-11T22:02:47.559Z,94.98
2019-03-11T22:03:47.492Z,94.79
2019-03-11T22:04:47.436Z,94.89
2019-03-11T22:05:47.382Z,94.98
2019-03-11T22:06:47.330Z,94.79
2019-03-11T22:07:47.276Z,95.17
2019-03-11T22:08:47.256Z,95.17
2019-03-11T22:09:47.167Z,94.98
2019-03-11T22:10:47.115Z,94.79
2019-03-11T22:11:47.060Z,94.89
2019-03-11T22:12:47.008Z,94.70
2019-03-11T22:13:46.955Z,94.79
2019-03-11T22:14:46.902Z,94.60
2019-03-11T22:15:46.879Z,94.98
2019-03-11T22:16:46.791Z,95.07
2019-03-11T22:17:46.736Z,94.89
2019-03-11T22:18:46.684Z,94.79
2019-03-11T22:19:46.629Z,95.07
2019-03-11T22:20:46.576Z,94.89
2019-03-11T22:21:46.522Z,94.70
2019-03-11T22:22:46.503Z,94.79
2019-03-11T22:23:46.415Z,94.70
2019-03-11T22:24:46.370Z,94.79
2019-03-11T22:25:46.315Z,94.89
2019-03-11T22:26:46.254Z,94.98
2019-03-11T22:27:46.269Z,94.79
2019-03-11T22:28:46.147Z,94.79
2019-03-11T22:29:46.130Z,95.17
2019-03-11T22:30:46.044Z,95.55
2019-03-11T22:31:46.021Z,95.74
2019-03-11T22:32:45.934Z,95.36
2019-03-11T22:33:45.880Z,95.07
2019-03-11T22:34:45.823Z,95.64
2019-03-11T22:35:45.771Z,95.45
2019-03-11T22:36:45.716Z,95.45
2019-03-11T22:37:45.662Z,95.36
2019-03-11T22:38:45.612Z,95.45
2019-03-11T22:39:45.555Z,95.17
2019-03-11T22:40:45.537Z,95.17
2019-03-11T22:41:45.447Z,95.07
2019-03-11T22:42:45.395Z,94.89
2019-03-11T22:43:45.342Z,94.51
2019-03-11T22:44:45.286Z,94.98
2019-03-11T22:45:45.233Z,94.89
2019-03-11T22:46:45.188Z,94.23
2019-03-11T22:47:45.127Z,94.51
2019-03-11T22:48:45.072Z,94.70
2019-03-11T22:49:45.052Z,94.13
2019-03-11T22:50:44.966Z,94.42
2019-03-11T22:51:44.911Z,93.70
2019-03-11T22:52:44.858Z,94.08
2019-03-11T22:53:44.806Z,93.94
2019-03-11T22:54:44.748Z,94.13
2019-03-11T22:55:44.696Z,93.46
2019-03-11T22:56:44.667Z,93.56
2019-03-11T22:57:44.588Z,94.04
2019-03-11T22:58:44.569Z,93.84
2019-03-11T22:59:44.480Z,94.08
2019-03-11T23:00:44.428Z,93.42
2019-03-11T23:01:44.374Z,93.65
2019-03-11T23:02:44.321Z,93.46
2019-03-11T23:03:50.496Z,93.37
2019-03-11T23:04:44.267Z,93.94
2019-03-11T23:05:57.164Z,93.84
2019-03-11T23:06:44.104Z,94.13
2019-03-11T23:07:44.075Z,94.32
2019-03-11T23:08:44.004Z,94.13
2019-03-11T23:09:43.944Z,94.37
2019-03-11T23:10:43.890Z,94.42
2019-03-11T23:11:43.837Z,94.23
2019-03-11T23:12:43.783Z,94.32
2019-03-11T23:13:43.762Z,94.42
2019-03-11T23:14:43.674Z,94.42
2019-03-11T23:15:43.628Z,94.42
2019-03-11T23:16:43.567Z,94.23
2019-03-11T23:17:43.514Z,94.51
2019-03-11T23:18:43.468Z,94.51
2019-03-11T23:19:43.407Z,94.42
2019-03-11T23:20:43.352Z,94.23
2019-03-11T23:21:43.302Z,94.13
2019-03-11T23:22:43.278Z,94.32
2019-03-11T23:23:43.191Z,94.42
2019-03-11T23:24:43.139Z,94.04
2019-03-11T23:25:43.083Z,94.13
2019-03-11T23:26:43.033Z,94.13
2019-03-11T23:27:42.977Z,94.13
2019-03-11T23:28:42.923Z,94.42
2019-03-11T23:29:42.871Z,93.99
2019-03-11T23:30:42.815Z,93.65